YM Vancouver — C4ZL2 — position and weather

sailwx.info

Track history (hours):
 
Tides and Currents Weather Stations Pressure Air Temp Water Temp Dewpoint Dewpoint Depression Visibility Wind Speed Wind Dir Waves Ship Positions

YM Vancouver

Last reported at 2018-Feb-19 06:28 UTC. Time now 2018-Feb-21 03:31 UTC.
Position N 41°36' E 141°36'.

Length 260 m; draft 11.2 m.

Type: Cargo ship. MMSI: 212714000.

Date/timePositionNaut miles runAvg speedWind from/ knotsBaromVisibWave heightAir tempDewpointWater temp
2018-Feb-19 06:28N 41°36' E 141°36'1420.2
2018-Feb-19 05:47N 41°37' E 141°18'519.0
2018-Feb-19 05:31N 41°37' E 141°11'1019.0
2018-Feb-19 05:01N 41°37' E 140°58'1019.2
2018-Feb-19 04:31N 41°35' E 140°46'918.5
2018-Feb-19 04:01N 41°29' E 140°36'1019.2
2018-Feb-19 03:31N 41°23' E 140°25'1121.6
2018-Feb-19 03:00N 41°16' E 140°14'  
2018-Feb-14 21:39N 35°60' E 120°26'312.2
2018-Feb-14 21:24N 36°00' E 120°23'510.9
2018-Feb-14 20:54N 36°02' E 120°16'3 5.8
2018-Feb-14 20:24N 36°01' E 120°13'0 0.0
2018-Feb-14 19:48N 36°01' E 120°13'0 0.0
2018-Feb-14 19:29N 36°01' E 120°13'0 0.0
2018-Feb-14 18:19N 36°01' E 120°13'0 0.1
2018-Feb-14 17:51N 36°01' E 120°13'0 0.0
2018-Feb-14 17:29N 36°01' E 120°13'0 0.0
2018-Feb-14 13:27N 36°01' E 120°13'0 0.0
2018-Feb-14 12:47N 36°01' E 120°13'0 0.0
2018-Feb-14 12:16N 36°01' E 120°13'0 0.0
2018-Feb-14 11:58N 36°01' E 120°13'1 0.8
2018-Feb-14 11:15N 36°01' E 120°13'2 6.2
2018-Feb-14 10:51N 36°02' E 120°16'5 9.8
2018-Feb-14 10:21N 36°01' E 120°22'145 4.5
2018-Feb-13 02:10N 38°16' E 121°32'211.6
2018-Feb-13 01:58N 38°17' E 121°29'812.1
2018-Feb-13 01:20N 38°20' E 121°21'25 0.6
2018-Feb-11 10:20N 38°37' E 121°43'618.1
2018-Feb-11 10:00N 38°42' E 121°47'12 0.9
2018-Feb-10 19:43N 38°51' E 121°58'2 6.5
2018-Feb-10 19:23N 38°50' E 121°60'  
Track history (hours):
 
Tides and Currents Weather Stations Pressure Air Temp Water Temp Dewpoint Dewpoint Depression Visibility Wind Speed Wind Dir Waves Ship Positions

YM Vancouver

Last reported at 2018-Feb-19 06:28 UTC. Time now 2018-Feb-21 03:31 UTC.
Position N 41°36' E 141°36'.

Length 260 m; draft 11.2 m.

Type: Cargo ship. MMSI: 212714000.

Date/timePositionNaut miles runAvg speedWind from/ knotsBaromVisibWave heightAir tempDewpointWater temp
2018-Feb-19 06:28N 41°36' E 141°36'1420.2
2018-Feb-19 05:47N 41°37' E 141°18'519.0
2018-Feb-19 05:31N 41°37' E 141°11'1019.0
2018-Feb-19 05:01N 41°37' E 140°58'1019.2
2018-Feb-19 04:31N 41°35' E 140°46'918.5
2018-Feb-19 04:01N 41°29' E 140°36'1019.2
2018-Feb-19 03:31N 41°23' E 140°25'1121.6
2018-Feb-19 03:00N 41°16' E 140°14'  
2018-Feb-14 21:39N 35°60' E 120°26'312.2
2018-Feb-14 21:24N 36°00' E 120°23'510.9
2018-Feb-14 20:54N 36°02' E 120°16'3 5.8
2018-Feb-14 20:24N 36°01' E 120°13'0 0.0
2018-Feb-14 19:48N 36°01' E 120°13'0 0.0
2018-Feb-14 19:29N 36°01' E 120°13'0 0.0
2018-Feb-14 18:19N 36°01' E 120°13'0 0.1
2018-Feb-14 17:51N 36°01' E 120°13'0 0.0
2018-Feb-14 17:29N 36°01' E 120°13'0 0.0
2018-Feb-14 13:27N 36°01' E 120°13'0 0.0
2018-Feb-14 12:47N 36°01' E 120°13'0 0.0
2018-Feb-14 12:16N 36°01' E 120°13'0 0.0
2018-Feb-14 11:58N 36°01' E 120°13'1 0.8
2018-Feb-14 11:15N 36°01' E 120°13'2 6.2
2018-Feb-14 10:51N 36°02' E 120°16'5 9.8
2018-Feb-14 10:21N 36°01' E 120°22'145 4.5
2018-Feb-13 02:10N 38°16' E 121°32'211.6
2018-Feb-13 01:58N 38°17' E 121°29'812.1
2018-Feb-13 01:20N 38°20' E 121°21'25 0.6
2018-Feb-11 10:20N 38°37' E 121°43'618.1
2018-Feb-11 10:00N 38°42' E 121°47'12 0.9
2018-Feb-10 19:43N 38°51' E 121°58'2 6.5
2018-Feb-10 19:23N 38°50' E 121°60'  

Dump ship's entire track history